Time;durP1;ratioP1;P1;durP2;ratioP2;P2;SDS_P1;SDS_P2;PMS_P1;PMS_P2;Temp;Humidity;BMP_temperature;BMP_pressure;BME280_temperature;BME280_humidity;BME280_pressure;Samples;Min_cycle;Max_cycle;Signal;HPM_P1;HPM_P2
2022/07/18 00:01:07;;;;;;;3.07;2.80;;;19.50;68.40;;;;;;5018775;28;20233;-60
2022/07/18 00:03:33;;;;;;;3.93;3.10;;;19.50;68.50;;;;;;5017831;28;20260;-59
2022/07/18 00:05:59;;;;;;;3.07;2.87;;;19.50;68.50;;;;;;5036514;28;20191;-60
2022/07/18 00:08:24;;;;;;;3.20;2.90;;;19.50;68.70;;;;;;5003867;28;20238;-59
2022/07/18 00:10:50;;;;;;;4.03;3.00;;;19.50;68.70;;;;;;5055200;28;20200;-60
2022/07/18 00:13:15;;;;;;;6.33;3.17;;;19.40;68.70;;;;;;5041484;28;20193;-60
2022/07/18 00:15:41;;;;;;;3.20;2.90;;;19.40;68.70;;;;;;5047824;28;20195;-59
2022/07/18 00:18:07;;;;;;;3.00;2.70;;;19.40;68.80;;;;;;5014977;28;20190;-60
2022/07/18 00:20:32;;;;;;;4.30;3.10;;;19.40;68.70;;;;;;5056257;28;20182;-59
2022/07/18 00:22:58;;;;;;;3.10;2.80;;;19.30;68.80;;;;;;5035145;28;20253;-60
2022/07/18 00:25:24;;;;;;;3.50;2.67;;;19.30;68.80;;;;;;5005729;28;20183;-59
2022/07/18 00:27:49;;;;;;;3.30;3.00;;;19.30;68.90;;;;;;5069646;28;20183;-60
2022/07/18 00:30:15;;;;;;;3.50;3.10;;;19.30;69.00;;;;;;5022076;28;20201;-60
2022/07/18 00:32:41;;;;;;;3.67;3.13;;;19.30;69.10;;;;;;5039150;28;20183;-60
2022/07/18 00:35:07;;;;;;;3.47;3.00;;;19.30;69.20;;;;;;5061340;28;20199;-59
2022/07/18 00:37:33;;;;;;;3.33;3.03;;;19.20;69.00;;;;;;5038188;28;20201;-59
2022/07/18 00:39:59;;;;;;;3.77;3.30;;;19.30;69.00;;;;;;5003995;28;20187;-60
2022/07/18 00:42:24;;;;;;;3.50;3.20;;;19.30;69.00;;;;;;5041225;28;20233;-60
2022/07/18 00:44:56;;;;;;;4.73;2.87;;;19.20;69.00;;;;;;4985891;28;20286;-60
2022/07/18 00:47:23;;;;;;;3.27;2.97;;;19.20;69.00;;;;;;5002033;28;20229;-60
2022/07/18 00:49:48;;;;;;;3.63;3.33;;;19.20;69.20;;;;;;5027561;28;20186;-60
2022/07/18 00:52:14;;;;;;;3.43;3.13;;;19.20;69.20;;;;;;5025727;28;20198;-60
2022/07/18 00:54:40;;;;;;;3.10;2.80;;;19.10;69.30;;;;;;5017294;28;20197;-59
2022/07/18 00:57:06;;;;;;;3.57;3.27;;;19.10;69.30;;;;;;5069952;28;20187;-59
2022/07/18 01:02:16;;;;;;;3.87;3.07;;;19.00;69.70;;;;;;5041121;28;20263;-60
2022/07/18 01:04:42;;;;;;;3.47;3.00;;;19.00;69.70;;;;;;5008596;28;20194;-59
2022/07/18 01:07:09;;;;;;;3.03;2.77;;;19.00;69.60;;;;;;5045038;28;20239;-60
2022/07/18 01:09:35;;;;;;;4.07;3.40;;;19.00;69.70;;;;;;5043909;28;20243;-60
2022/07/18 01:12:01;;;;;;;3.33;3.03;;;19.00;69.50;;;;;;5048590;28;20194;-59
2022/07/18 01:14:27;;;;;;;3.00;2.80;;;18.90;69.60;;;;;;5033890;28;20226;-60
2022/07/18 01:16:52;;;;;;;3.17;2.93;;;19.00;69.60;;;;;;5030270;28;20222;-60
2022/07/18 01:19:18;;;;;;;3.50;3.10;;;19.00;69.80;;;;;;5034947;28;20191;-60
2022/07/18 01:21:44;;;;;;;4.80;3.73;;;18.90;69.70;;;;;;5018154;28;20277;-59
2022/07/18 01:24:09;;;;;;;3.83;3.10;;;18.90;69.80;;;;;;5025976;28;20215;-59
2022/07/18 01:26:36;;;;;;;2.97;2.77;;;18.90;69.60;;;;;;5058671;28;20182;-60
2022/07/18 01:29:02;;;;;;;5.17;3.67;;;18.80;70.30;;;;;;5008286;28;20178;-60
2022/07/18 01:31:33;;;;;;;4.10;3.40;;;18.80;70.10;;;;;;5075967;28;20217;-59
2022/07/18 01:33:59;;;;;;;3.80;3.40;;;18.90;70.10;;;;;;5029127;28;20209;-59
2022/07/18 01:36:25;;;;;;;3.50;3.20;;;18.80;70.10;;;;;;5020489;28;20197;-59
2022/07/18 01:38:51;;;;;;;3.60;3.30;;;18.80;70.00;;;;;;5051828;28;20182;-60
2022/07/18 01:41:16;;;;;;;3.17;2.97;;;18.90;69.90;;;;;;5036302;28;20191;-60
2022/07/18 01:43:42;;;;;;;3.37;3.17;;;18.90;70.00;;;;;;5047737;28;20197;-60
2022/07/18 01:46:10;;;;;;;4.27;3.57;;;18.90;70.10;;;;;;5050325;28;20197;-60
2022/07/18 01:48:39;;;;;;;3.87;3.23;;;18.80;70.10;;;;;;5054132;28;20183;-60
2022/07/18 01:51:09;;;;;;;5.00;3.07;;;18.80;70.20;;;;;;5037824;28;20218;-59
2022/07/18 01:53:36;;;;;;;6.07;3.13;;;18.80;70.20;;;;;;5048084;28;20187;-60
2022/07/18 01:56:03;;;;;;;3.70;3.40;;;18.80;70.20;;;;;;5049515;28;20186;-60
2022/07/18 01:58:28;;;;;;;4.13;3.73;;;18.80;70.20;;;;;;5052667;28;20208;-60
2022/07/18 02:00:54;;;;;;;3.60;3.30;;;18.80;70.20;;;;;;5062797;28;20183;-60
2022/07/18 02:03:20;;;;;;;3.77;3.43;;;18.80;70.50;;;;;;5019893;28;20643;-60
2022/07/18 02:05:45;;;;;;;5.07;3.20;;;18.80;70.50;;;;;;5021799;28;20185;-60
2022/07/18 02:08:11;;;;;;;3.60;3.30;;;18.70;70.50;;;;;;5034377;28;20213;-60
2022/07/18 02:10:37;;;;;;;4.10;3.70;;;18.70;70.60;;;;;;5002832;28;20190;-60
2022/07/18 02:13:02;;;;;;;4.03;3.47;;;18.70;70.60;;;;;;5000821;28;20190;-60
2022/07/18 02:15:28;;;;;;;5.20;3.67;;;18.70;70.70;;;;;;5006386;28;20199;-59
2022/07/18 02:17:54;;;;;;;4.87;4.37;;;18.70;70.50;;;;;;5014459;28;20194;-60
2022/07/18 02:20:19;;;;;;;4.00;3.60;;;18.70;70.60;;;;;;4994062;28;20196;-59
2022/07/18 02:22:45;;;;;;;4.90;3.60;;;18.70;70.70;;;;;;4983946;28;20206;-60
2022/07/18 02:25:11;;;;;;;4.40;3.93;;;18.70;70.70;;;;;;5034067;28;20238;-60
2022/07/18 02:27:37;;;;;;;4.00;3.60;;;18.60;70.70;;;;;;5060104;28;20182;-60
2022/07/18 02:30:05;;;;;;;4.53;4.13;;;18.70;70.70;;;;;;5017913;28;20202;-59
2022/07/18 02:32:31;;;;;;;4.10;3.70;;;18.60;70.90;;;;;;4992730;28;20218;-60
2022/07/18 02:34:56;;;;;;;4.20;3.83;;;18.60;70.90;;;;;;5003465;28;20238;-60
2022/07/18 02:37:22;;;;;;;4.87;4.20;;;18.60;70.90;;;;;;5000014;28;20187;-60
2022/07/18 02:39:48;;;;;;;4.33;3.93;;;18.60;71.00;;;;;;5033512;28;20398;-59
2022/07/18 02:42:13;;;;;;;4.97;4.20;;;18.50;71.00;;;;;;4994997;28;20207;-60
2022/07/18 02:44:39;;;;;;;5.97;3.50;;;18.60;71.20;;;;;;5011783;28;20274;-60
2022/07/18 02:47:05;;;;;;;4.53;3.90;;;18.50;71.30;;;;;;5017308;28;20183;-60
2022/07/18 02:49:31;;;;;;;5.97;4.17;;;18.50;71.20;;;;;;5000894;28;20212;-59
2022/07/18 02:52:04;;;;;;;6.77;3.93;;;18.50;71.60;;;;;;5016212;28;20183;-60
2022/07/18 02:54:31;;;;;;;4.80;3.93;;;18.50;71.30;;;;;;5016947;28;20187;-59
2022/07/18 02:56:57;;;;;;;4.73;3.73;;;18.50;71.20;;;;;;4999370;28;20183;-60
2022/07/18 02:59:23;;;;;;;6.53;3.93;;;18.40;71.30;;;;;;5017214;28;20663;-60
2022/07/18 03:01:49;;;;;;;4.47;3.70;;;18.50;71.30;;;;;;4999635;28;20239;-60
2022/07/18 03:04:16;;;;;;;4.67;3.90;;;18.40;71.50;;;;;;4999472;28;20208;-60
2022/07/18 03:06:41;;;;;;;4.23;3.83;;;18.40;71.60;;;;;;5017571;28;20269;-60
2022/07/18 03:09:08;;;;;;;4.17;3.87;;;18.30;71.70;;;;;;5011055;28;20322;-60
2022/07/18 03:11:34;;;;;;;6.13;4.50;;;18.30;71.70;;;;;;5028128;28;20229;-60
2022/07/18 03:13:59;;;;;;;5.33;4.50;;;18.40;71.60;;;;;;5037016;28;20194;-59
2022/07/18 03:16:25;;;;;;;4.60;4.20;;;18.30;71.90;;;;;;5052621;28;20184;-59
2022/07/18 03:18:51;;;;;;;4.63;3.90;;;18.30;71.80;;;;;;5034402;28;20237;-60
2022/07/18 03:21:16;;;;;;;4.37;3.97;;;18.30;71.70;;;;;;5034081;28;20197;-60
2022/07/18 03:23:42;;;;;;;5.23;3.83;;;18.30;71.80;;;;;;5039259;28;20298;-60
2022/07/18 03:26:07;;;;;;;4.40;4.00;;;18.30;71.80;;;;;;5036617;28;20187;-59
2022/07/18 03:28:33;;;;;;;4.70;4.27;;;18.30;71.80;;;;;;5042032;28;20189;-59
2022/07/18 03:30:59;;;;;;;4.73;4.33;;;18.20;72.10;;;;;;5047551;28;20205;-59
2022/07/18 03:33:26;;;;;;;5.10;4.43;;;18.20;72.20;;;;;;5022549;28;20198;-59
2022/07/18 03:35:51;;;;;;;4.37;3.83;;;18.20;72.00;;;;;;5065097;28;20190;-60
2022/07/18 03:38:17;;;;;;;3.70;3.40;;;18.20;72.30;;;;;;5036500;28;20190;-60
2022/07/18 03:40:43;;;;;;;4.20;3.53;;;18.20;72.20;;;;;;5039272;28;20221;-60
2022/07/18 03:43:08;;;;;;;4.73;4.23;;;18.20;72.20;;;;;;5065511;28;20225;-60
2022/07/18 03:45:34;;;;;;;4.60;4.20;;;18.30;72.00;;;;;;5055518;28;20189;-60
2022/07/18 03:48:00;;;;;;;5.93;4.30;;;18.30;72.20;;;;;;5029858;28;20272;-60
2022/07/18 03:50:27;;;;;;;5.30;4.03;;;18.30;72.20;;;;;;5057402;28;20220;-60
2022/07/18 03:52:53;;;;;;;4.07;3.67;;;18.30;72.10;;;;;;5055310;28;20628;-60
2022/07/18 03:55:19;;;;;;;4.50;3.83;;;18.20;72.20;;;;;;5057801;28;20247;-59
2022/07/18 03:57:45;;;;;;;5.87;4.23;;;18.20;72.40;;;;;;5035319;28;20199;-60
2022/07/18 04:00:11;;;;;;;4.43;4.03;;;18.20;72.50;;;;;;5036056;28;20180;-60
2022/07/18 04:02:45;;;;;;;5.73;4.23;;;18.30;72.40;;;;;;5055467;28;20210;-60
2022/07/18 04:05:12;;;;;;;6.67;3.93;;;18.30;72.30;;;;;;5062015;28;20185;-60
2022/07/18 04:07:38;;;;;;;5.70;4.43;;;18.30;72.30;;;;;;5061439;28;20186;-60
2022/07/18 04:10:05;;;;;;;4.93;4.43;;;18.30;72.30;;;;;;5052983;28;20232;-60
2022/07/18 04:12:31;;;;;;;4.93;4.40;;;18.30;72.20;;;;;;5036568;28;20227;-60
2022/07/18 04:14:57;;;;;;;4.80;4.07;;;18.30;72.30;;;;;;5036819;28;20187;-60
2022/07/18 04:17:23;;;;;;;5.87;4.37;;;18.30;72.50;;;;;;5052905;28;20190;-60
2022/07/18 04:19:49;;;;;;;5.47;3.97;;;18.30;72.60;;;;;;5053136;28;20232;-60
2022/07/18 04:22:15;;;;;;;5.20;4.40;;;18.30;72.80;;;;;;5018762;28;20210;-60
2022/07/18 04:24:40;;;;;;;5.70;3.80;;;18.30;72.70;;;;;;5037835;28;20194;-60
2022/07/18 04:27:06;;;;;;;5.23;4.27;;;18.40;72.70;;;;;;5066276;28;20186;-60
2022/07/18 04:29:32;;;;;;;6.33;4.40;;;18.40;72.70;;;;;;5039913;28;20178;-60
2022/07/18 04:31:58;;;;;;;7.07;4.53;;;18.30;73.20;;;;;;5054566;28;20218;-59
2022/07/18 04:34:24;;;;;;;5.07;4.20;;;18.30;73.30;;;;;;5041194;28;20193;-60
2022/07/18 04:36:49;;;;;;;5.27;4.30;;;18.40;73.20;;;;;;5037681;28;20205;-60
2022/07/18 04:39:16;;;;;;;4.97;4.10;;;18.50;73.30;;;;;;5063845;28;20187;-60
2022/07/18 04:41:42;;;;;;;5.30;4.73;;;18.50;73.40;;;;;;5055367;28;20188;-58
2022/07/18 04:44:08;;;;;;;5.50;4.33;;;18.50;73.40;;;;;;5046475;28;20195;-59
2022/07/18 04:46:34;;;;;;;4.83;4.43;;;18.40;73.80;;;;;;5053768;28;20186;-59
2022/07/18 04:48:59;;;;;;;5.77;4.60;;;18.40;73.90;;;;;;5014618;28;20206;-58
2022/07/18 04:51:25;;;;;;;4.90;4.40;;;18.40;73.90;;;;;;5035596;28;20273;-58
2022/07/18 04:53:51;;;;;;;5.27;4.57;;;18.50;73.70;;;;;;5035531;28;20186;-58
2022/07/18 04:56:16;;;;;;;8.13;4.47;;;18.50;74.00;;;;;;5033558;28;20191;-58
2022/07/18 04:58:42;;;;;;;5.50;4.90;;;18.40;73.40;;;;;;5055203;28;20225;-58
2022/07/18 05:01:08;;;;;;;6.73;3.93;;;18.40;74.20;;;;;;5034556;28;20209;-58
2022/07/18 05:03:33;;;;;;;4.83;4.33;;;18.40;74.10;;;;;;5036662;28;20238;-58
2022/07/18 05:05:59;;;;;;;5.23;3.83;;;18.50;73.70;;;;;;5020536;28;20224;-58
2022/07/18 05:08:24;;;;;;;5.67;4.60;;;18.50;73.80;;;;;;5023786;28;20232;-59
2022/07/18 05:10:50;;;;;;;5.60;5.10;;;18.50;73.90;;;;;;5031641;28;20201;-59
2022/07/18 05:13:16;;;;;;;5.87;4.20;;;18.50;73.60;;;;;;5026476;28;20188;-58
2022/07/18 05:15:42;;;;;;;5.80;4.67;;;18.50;73.80;;;;;;5033956;28;20194;-58
2022/07/18 05:18:07;;;;;;;4.70;4.30;;;18.60;73.60;;;;;;5025153;28;20191;-58
2022/07/18 05:20:33;;;;;;;5.13;3.97;;;18.50;73.60;;;;;;5048649;28;20201;-58
2022/07/18 05:22:59;;;;;;;6.73;4.10;;;18.50;73.60;;;;;;5053732;28;20293;-59
2022/07/18 05:25:25;;;;;;;5.87;3.97;;;18.50;73.30;;;;;;5039155;28;20287;-61
2022/07/18 05:27:52;;;;;;;6.03;4.80;;;18.40;74.10;;;;;;5041642;28;20186;-58
2022/07/18 05:30:19;;;;;;;7.07;4.40;;;18.40;73.70;;;;;;5049536;28;20218;-60
2022/07/18 05:32:45;;;;;;;4.17;3.80;;;18.40;74.20;;;;;;5024835;28;20242;-58
2022/07/18 05:35:12;;;;;;;4.90;4.40;;;18.50;74.00;;;;;;5051587;28;20195;-58
2022/07/18 05:37:39;;;;;;;5.00;4.50;;;18.50;74.00;;;;;;5031329;28;20197;-57
2022/07/18 05:40:07;;;;;;;4.83;4.30;;;18.50;74.00;;;;;;5033308;28;20186;-57
2022/07/18 05:42:33;;;;;;;11.00;6.20;;;18.60;74.00;;;;;;5043739;28;20216;-57
2022/07/18 05:44:59;;;;;;;22.47;8.93;;;18.60;73.60;;;;;;5031545;28;20187;-56
2022/07/18 05:47:25;;;;;;;12.50;6.70;;;18.60;73.60;;;;;;5045906;28;20210;-57
2022/07/18 05:49:50;;;;;;;22.57;10.30;;;18.60;73.40;;;;;;5032050;28;20179;-57
2022/07/18 05:52:16;;;;;;;94.83;27.43;;;18.60;73.40;;;;;;5020410;28;20191;-57
2022/07/18 05:54:42;;;;;;;50.07;17.57;;;18.60;73.70;;;;;;5021558;28;20251;-58
2022/07/18 05:57:07;;;;;;;82.60;25.10;;;18.60;73.60;;;;;;5044548;28;20194;-57
2022/07/18 05:59:33;;;;;;;61.50;21.90;;;18.70;73.60;;;;;;5022786;28;20210;-57
2022/07/18 06:01:59;;;;;;;67.83;19.53;;;18.70;73.60;;;;;;5030745;28;20225;-57
2022/07/18 06:04:24;;;;;;;104.90;29.77;;;18.70;73.60;;;;;;5020018;28;20198;-57
2022/07/18 06:06:50;;;;;;;55.87;18.43;;;18.70;73.70;;;;;;5041477;28;20265;-57
2022/07/18 06:09:17;;;;;;;32.77;12.67;;;18.70;73.60;;;;;;5053735;28;20287;-57
2022/07/18 06:11:43;;;;;;;17.07;8.33;;;18.70;73.70;;;;;;5019799;28;20205;-57
2022/07/18 06:14:08;;;;;;;7.03;5.53;;;18.70;74.00;;;;;;5050806;28;20182;-57
2022/07/18 06:16:34;;;;;;;7.80;5.20;;;18.70;73.90;;;;;;5032298;28;20187;-57
2022/07/18 06:19:00;;;;;;;8.20;4.63;;;18.80;73.80;;;;;;5033902;28;20274;-57
2022/07/18 06:21:26;;;;;;;4.90;4.40;;;18.80;73.90;;;;;;5033067;28;20190;-57
2022/07/18 06:23:51;;;;;;;5.33;4.50;;;18.80;73.90;;;;;;5052863;28;20191;-57
2022/07/18 06:26:17;;;;;;;5.83;4.50;;;18.80;73.70;;;;;;5054428;28;20193;-57
2022/07/18 06:28:43;;;;;;;5.23;4.03;;;18.80;73.50;;;;;;5046796;28;20182;-57
2022/07/18 06:31:11;;;;;;;6.27;4.63;;;18.80;73.90;;;;;;5026946;28;20188;-57
2022/07/18 06:33:37;;;;;;;5.50;4.23;;;18.90;73.70;;;;;;5049585;28;20188;-57
2022/07/18 06:36:03;;;;;;;6.03;4.70;;;18.90;73.80;;;;;;5043216;28;20193;-57
2022/07/18 06:38:29;;;;;;;6.77;4.57;;;18.90;73.60;;;;;;5052208;28;20280;-57
2022/07/18 06:40:54;;;;;;;4.57;3.83;;;18.90;73.60;;;;;;5033703;28;20285;-55
2022/07/18 06:43:20;;;;;;;8.93;4.60;;;19.00;73.50;;;;;;5018574;28;20199;-57
2022/07/18 06:45:46;;;;;;;7.57;5.17;;;19.00;73.00;;;;;;5033709;28;20248;-57
2022/07/18 06:48:14;;;;;;;5.77;5.27;;;19.10;72.90;;;;;;5033382;28;20191;-57
2022/07/18 06:50:40;;;;;;;5.60;4.80;;;19.10;73.40;;;;;;5033716;28;20214;-57
2022/07/18 06:53:05;;;;;;;5.50;4.20;;;19.10;73.60;;;;;;5033757;28;20661;-57
2022/07/18 06:55:31;;;;;;;5.67;4.30;;;19.20;73.90;;;;;;5034715;28;20195;-57
2022/07/18 06:57:57;;;;;;;7.33;4.30;;;19.20;74.40;;;;;;5037352;28;20178;-57
2022/07/18 07:00:22;;;;;;;8.63;5.07;;;19.20;74.60;;;;;;5048178;28;20183;-57
2022/07/18 07:02:49;;;;;;;8.10;4.70;;;19.20;73.50;;;;;;5040331;28;20267;-57
2022/07/18 07:05:17;;;;;;;10.20;4.87;;;19.20;73.70;;;;;;5050274;28;20183;-57
2022/07/18 07:07:44;;;;;;;6.27;4.80;;;19.30;73.60;;;;;;5045384;28;20175;-57
2022/07/18 07:10:11;;;;;;;7.70;4.57;;;19.30;74.30;;;;;;5042511;28;20326;-57
2022/07/18 07:12:41;;;;;;;6.47;5.00;;;19.30;72.40;;;;;;5049406;28;20201;-57
2022/07/18 07:15:08;;;;;;;8.00;4.93;;;19.30;72.80;;;;;;5054090;28;20206;-57
2022/07/18 07:17:34;;;;;;;7.90;4.53;;;19.30;74.10;;;;;;5036315;28;20182;-57
2022/07/18 07:20:00;;;;;;;11.33;5.07;;;19.40;74.90;;;;;;5058184;28;20201;-57
2022/07/18 07:22:25;;;;;;;4.83;4.37;;;19.40;74.70;;;;;;5045703;28;20249;-57
2022/07/18 07:24:51;;;;;;;7.60;4.70;;;19.40;74.70;;;;;;5053251;28;20187;-57
2022/07/18 07:27:17;;;;;;;6.23;4.37;;;19.50;75.70;;;;;;5044750;28;20177;-57
2022/07/18 07:29:42;;;;;;;5.20;4.70;;;19.50;75.70;;;;;;5039967;28;20187;-57
2022/07/18 07:32:08;;;;;;;4.93;3.50;;;19.50;75.20;;;;;;5021398;28;20196;-57
2022/07/18 07:34:34;;;;;;;5.80;4.00;;;19.50;74.30;;;;;;5041589;28;20181;-57
2022/07/18 07:37:00;;;;;;;7.10;4.10;;;19.50;74.40;;;;;;5034558;28;20213;-57
2022/07/18 07:39:25;;;;;;;5.83;4.17;;;19.50;73.00;;;;;;5049172;28;20189;-57
2022/07/18 07:41:51;;;;;;;3.67;3.37;;;19.60;71.40;;;;;;5055151;28;20183;-57
2022/07/18 07:44:17;;;;;;;9.20;4.40;;;19.70;72.10;;;;;;5041051;28;20213;-56
2022/07/18 07:46:42;;;;;;;4.33;3.93;;;19.70;70.90;;;;;;5054334;28;20187;-57
2022/07/18 07:49:08;;;;;;;4.10;3.73;;;19.70;70.90;;;;;;5036469;28;20341;-57
2022/07/18 07:51:34;;;;;;;6.10;3.60;;;19.70;71.20;;;;;;5038162;28;20214;-59
2022/07/18 07:53:59;;;;;;;7.10;3.60;;;19.80;70.90;;;;;;5051227;28;20214;-56
2022/07/18 07:56:25;;;;;;;4.47;3.63;;;19.80;71.10;;;;;;5036980;28;20250;-56
2022/07/18 07:58:50;;;;;;;4.50;3.40;;;19.90;68.80;;;;;;5054869;28;20194;-57
2022/07/18 08:01:19;;;;;;;4.70;3.90;;;19.90;69.60;;;;;;5050776;28;20216;-57
2022/07/18 08:03:48;;;;;;;4.10;3.57;;;19.90;68.00;;;;;;5049789;28;20202;-57
2022/07/18 08:06:14;;;;;;;4.57;3.40;;;20.00;68.90;;;;;;5057420;28;20182;-56
2022/07/18 08:08:40;;;;;;;4.23;3.43;;;20.00;68.00;;;;;;5046691;28;20222;-57
2022/07/18 08:11:06;;;;;;;4.13;3.10;;;20.10;69.70;;;;;;5054481;28;20178;-57
2022/07/18 08:13:31;;;;;;;4.33;3.50;;;20.10;70.30;;;;;;5038462;28;20193;-58
2022/07/18 08:15:57;;;;;;;3.40;2.97;;;20.10;68.70;;;;;;5053585;28;20194;-57
2022/07/18 08:18:23;;;;;;;4.43;2.90;;;20.20;67.00;;;;;;5036412;28;20190;-57
2022/07/18 08:20:48;;;;;;;5.77;2.97;;;20.20;67.20;;;;;;5027340;28;20186;-58
2022/07/18 08:23:16;;;;;;;4.70;3.07;;;20.30;67.10;;;;;;5054119;28;20210;-58
2022/07/18 08:25:44;;;;;;;6.23;3.20;;;20.30;67.70;;;;;;5042191;28;20190;-58
2022/07/18 08:28:11;;;;;;;4.90;2.97;;;20.30;67.20;;;;;;5051073;28;20598;-58
2022/07/18 08:30:38;;;;;;;3.57;2.87;;;20.30;68.00;;;;;;5051751;28;20192;-59
2022/07/18 08:33:04;;;;;;;3.03;2.80;;;20.30;68.60;;;;;;5050622;28;20242;-57
2022/07/18 08:35:34;;;;;;;4.47;3.20;;;20.30;68.70;;;;;;5034931;28;20299;-57
2022/07/18 08:38:01;;;;;;;6.37;3.13;;;20.30;67.40;;;;;;5033946;28;20272;-57
2022/07/18 08:40:27;;;;;;;5.20;2.70;;;20.30;67.00;;;;;;5070648;28;20235;-58
2022/07/18 08:42:57;;;;;;;5.63;2.80;;;20.30;68.00;;;;;;5042070;28;20206;-57
2022/07/18 08:45:24;;;;;;;4.13;3.20;;;20.30;68.40;;;;;;5068095;28;20281;-56
2022/07/18 08:47:51;;;;;;;4.13;3.03;;;20.40;66.80;;;;;;5046071;28;20185;-53
2022/07/18 08:50:18;;;;;;;3.03;2.80;;;20.40;66.90;;;;;;5041221;28;20258;-56
2022/07/18 08:52:44;;;;;;;3.70;3.23;;;20.50;66.20;;;;;;5030618;28;20195;-54
2022/07/18 08:55:11;;;;;;;3.93;3.20;;;20.60;64.50;;;;;;5032619;28;20186;-54
2022/07/18 08:57:37;;;;;;;4.37;3.33;;;20.80;63.00;;;;;;5037329;28;20193;-57
2022/07/18 09:00:06;;;;;;;5.17;2.90;;;20.80;63.00;;;;;;5055608;28;20216;-56
2022/07/18 09:02:31;;;;;;;4.27;2.50;;;20.80;63.50;;;;;;5063943;28;20286;-56
2022/07/18 09:05:01;;;;;;;10.37;5.37;;;20.80;62.60;;;;;;5049780;28;20255;-56
2022/07/18 09:07:34;;;;;;;4.13;3.70;;;20.90;64.60;;;;;;5052363;28;20182;-57
2022/07/18 09:10:02;;;;;;;4.53;3.17;;;20.90;66.80;;;;;;5071159;28;20234;-57
2022/07/18 09:12:31;;;;;;;6.83;3.47;;;20.90;64.80;;;;;;5057694;28;20224;-57
2022/07/18 09:14:57;;;;;;;6.70;2.80;;;21.00;62.40;;;;;;5053984;28;20186;-57
2022/07/18 09:17:30;;;;;;;4.63;3.23;;;21.00;61.40;;;;;;5046387;28;20210;-57
2022/07/18 09:20:14;;;;;;;4.27;2.50;;;21.00;62.40;;;;;;5059507;28;20195;-56
2022/07/18 09:22:45;;;;;;;4.03;3.20;;;21.10;63.60;;;;;;5050215;28;20349;-57
2022/07/18 09:25:24;;;;;;;8.70;3.13;;;21.20;63.30;;;;;;5027385;28;20194;-56
2022/07/18 09:27:52;;;;;;;4.70;3.50;;;21.20;60.90;;;;;;5067669;28;20218;-54
2022/07/18 09:30:28;;;;;;;5.30;3.10;;;21.20;65.50;;;;;;5050945;28;20186;-56
2022/07/18 09:33:02;;;;;;;3.57;3.10;;;21.20;66.90;;;;;;5057985;28;20186;-55
2022/07/18 09:35:33;;;;;;;3.53;2.90;;;21.10;68.80;;;;;;5046898;28;20190;-52
2022/07/18 09:38:07;;;;;;;3.97;2.90;;;21.20;61.60;;;;;;5060131;28;20190;-56
2022/07/18 09:40:42;;;;;;;3.90;3.27;;;21.30;61.20;;;;;;5038090;28;20190;-58
2022/07/18 09:43:10;;;;;;;6.00;3.03;;;21.40;63.10;;;;;;5059051;28;20245;-57
2022/07/18 09:45:50;;;;;;;2.90;2.67;;;21.30;63.40;;;;;;5049605;28;20190;-57
2022/07/18 09:48:21;;;;;;;4.73;3.10;;;21.30;62.80;;;;;;5060705;28;20189;-57
2022/07/18 09:50:55;;;;;;;3.50;2.97;;;21.30;66.00;;;;;;5051313;28;20267;-57
2022/07/18 09:53:26;;;;;;;4.63;3.73;;;21.30;62.60;;;;;;5036973;28;20285;-57
2022/07/18 09:55:57;;;;;;;3.40;2.90;;;21.50;61.50;;;;;;5054617;28;20194;-57
2022/07/18 09:58:25;;;;;;;5.23;2.80;;;21.60;63.00;;;;;;5052999;28;20205;-57
2022/07/18 10:00:52;;;;;;;5.03;3.10;;;21.70;57.20;;;;;;5051112;28;20206;-57
2022/07/18 10:03:22;;;;;;;3.43;2.93;;;21.70;59.30;;;;;;5061654;28;20206;-57
2022/07/18 10:05:49;;;;;;;6.17;2.97;;;21.80;60.30;;;;;;5063094;28;20332;-57
2022/07/18 10:08:18;;;;;;;4.43;3.23;;;21.80;61.70;;;;;;5057854;28;20179;-57
2022/07/18 10:10:47;;;;;;;3.17;2.87;;;21.80;56.70;;;;;;5013806;28;20202;-57
2022/07/18 10:13:14;;;;;;;3.40;2.80;;;22.00;57.80;;;;;;5026896;28;20187;-57
2022/07/18 10:15:42;;;;;;;2.60;2.40;;;22.00;58.10;;;;;;5013812;28;20190;-57
2022/07/18 10:18:11;;;;;;;3.17;2.60;;;22.10;56.70;;;;;;4996414;28;20200;-57
2022/07/18 10:20:45;;;;;;;6.37;2.83;;;22.10;56.30;;;;;;5009614;28;20198;-58
2022/07/18 10:23:32;;;;;;;3.47;2.77;;;22.20;56.90;;;;;;5015576;28;20217;-57
2022/07/18 10:26:22;;;;;;;2.70;2.50;;;22.30;53.60;;;;;;5037488;28;20179;-56
2022/07/18 10:29:00;;;;;;;2.93;2.67;;;22.40;53.40;;;;;;5033893;28;20183;-54
2022/07/18 10:31:31;;;;;;;3.60;3.00;;;22.40;54.00;;;;;;5020672;28;20183;-56
2022/07/18 10:34:26;;;;;;;4.97;2.77;;;22.40;56.80;;;;;;5035606;28;20424;-55
2022/07/18 10:36:51;;;;;;;3.20;2.80;;;22.40;58.90;;;;;;5046763;28;20223;-57
2022/07/18 10:39:23;;;;;;;3.90;2.40;;;22.30;57.70;;;;;;5019843;28;20225;-57
2022/07/18 10:41:57;;;;;;;3.00;2.50;;;22.30;59.40;;;;;;5016786;28;20199;-58
2022/07/18 10:44:29;;;;;;;3.23;2.30;;;22.30;58.80;;;;;;5020437;28;20186;-55
2022/07/18 10:47:05;;;;;;;3.77;2.87;;;22.30;58.50;;;;;;5017076;28;20198;-55
2022/07/18 10:49:48;;;;;;;2.50;2.23;;;22.30;59.10;;;;;;5024006;28;20198;-56
2022/07/18 10:52:29;;;;;;;3.57;2.37;;;22.40;59.20;;;;;;5036869;28;20201;-55
2022/07/18 10:55:08;;;;;;;3.40;2.70;;;22.50;59.10;;;;;;5013212;28;20182;-55
2022/07/18 10:57:36;;;;;;;3.10;2.20;;;22.50;58.50;;;;;;5013761;28;20187;-55
2022/07/18 11:00:24;;;;;;;2.43;2.10;;;22.60;57.80;;;;;;5016213;28;20203;-57
2022/07/18 11:03:10;;;;;;;5.03;2.30;;;22.60;56.30;;;;;;5013645;28;20223;-57
2022/07/18 11:05:42;;;;;;;3.50;2.30;;;22.70;58.20;;;;;;5019494;28;20187;-55
2022/07/18 11:08:13;;;;;;;2.67;2.40;;;22.80;54.60;;;;;;5034952;28;20180;-56
2022/07/18 11:10:46;;;;;;;3.63;2.33;;;22.80;56.70;;;;;;5048387;28;20279;-55
2022/07/18 11:13:28;;;;;;;4.00;2.63;;;22.90;56.90;;;;;;5055037;28;20209;-55
2022/07/18 11:16:12;;;;;;;5.43;2.53;;;23.00;53.70;;;;;;5055855;28;20190;-54
2022/07/18 11:18:44;;;;;;;2.60;2.40;;;23.10;54.20;;;;;;5056453;28;20195;-54
2022/07/18 11:21:33;;;;;;;2.37;2.17;;;23.10;56.10;;;;;;5046895;28;20202;-64
2022/07/18 11:24:08;;;;;;;3.07;2.47;;;23.20;54.50;;;;;;5056473;28;20202;-65
2022/07/18 11:26:36;;;;;;;6.30;2.43;;;23.30;55.10;;;;;;5042681;28;20190;-65
2022/07/18 11:29:06;;;;;;;4.13;2.60;;;23.30;57.10;;;;;;5028753;28;20191;-67
2022/07/18 11:31:42;;;;;;;2.43;2.23;;;23.30;58.30;;;;;;5052469;28;20240;-64
2022/07/18 11:34:08;;;;;;;3.10;2.37;;;23.30;55.30;;;;;;5026851;28;20186;-62
2022/07/18 11:36:33;;;;;;;3.63;2.33;;;23.40;55.70;;;;;;5037746;28;20267;-62
2022/07/18 11:39:02;;;;;;;2.37;2.10;;;23.40;53.20;;;;;;5025332;28;20274;-62
2022/07/18 11:41:27;;;;;;;2.23;2.07;;;23.40;53.90;;;;;;5049247;28;20210;-64
2022/07/18 11:43:55;;;;;;;2.30;2.10;;;23.50;55.80;;;;;;5040752;28;20247;-63
2022/07/18 11:46:26;;;;;;;4.93;2.20;;;23.60;56.90;;;;;;5032628;28;20202;-56
2022/07/18 11:49:00;;;;;;;2.87;2.33;;;23.70;57.40;;;;;;5045550;28;20201;-57
2022/07/18 11:51:34;;;;;;;2.73;2.20;;;23.80;56.20;;;;;;5037695;28;20224;-55
2022/07/18 11:54:00;;;;;;;3.17;2.20;;;23.90;52.30;;;;;;5042965;28;20244;-56
2022/07/18 11:56:25;;;;;;;3.63;2.40;;;24.10;52.80;;;;;;5036036;28;20203;-58
2022/07/18 11:58:52;;;;;;;2.50;2.30;;;24.20;53.80;;;;;;5049441;28;20205;-58
2022/07/18 12:01:19;;;;;;;2.60;2.17;;;24.20;53.90;;;;;;5048089;28;20191;-55
2022/07/18 12:03:49;;;;;;;2.43;2.17;;;24.30;49.00;;;;;;5051633;28;20240;-57
2022/07/18 12:06:19;;;;;;;3.20;2.10;;;24.50;49.70;;;;;;5045277;28;20190;-57
2022/07/18 12:08:46;;;;;;;3.30;2.23;;;24.50;52.50;;;;;;5036873;28;20382;-57
2022/07/18 12:11:31;;;;;;;2.20;2.00;;;24.60;52.30;;;;;;5028975;28;20198;-57
2022/07/18 12:14:02;;;;;;;2.40;2.20;;;24.70;53.90;;;;;;5050039;28;20186;-57
2022/07/18 12:16:42;;;;;;;2.77;2.57;;;24.80;49.70;;;;;;5046755;28;20190;-56
2022/07/18 12:19:12;;;;;;;2.20;2.00;;;25.00;52.70;;;;;;5047451;28;20339;-57
2022/07/18 12:22:01;;;;;;;4.07;2.20;;;25.20;52.10;;;;;;5045205;28;20273;-57
2022/07/18 12:24:40;;;;;;;3.10;2.30;;;25.50;51.50;;;;;;5050238;28;20190;-57
2022/07/18 12:27:21;;;;;;;3.13;1.80;;;25.90;47.90;;;;;;5043124;28;20183;-56
2022/07/18 12:30:11;;;;;;;2.60;2.40;;;26.20;48.10;;;;;;5035785;28;20187;-55
2022/07/18 12:32:53;;;;;;;2.20;2.00;;;26.40;46.30;;;;;;5035133;28;20210;-55
2022/07/18 12:35:31;;;;;;;2.73;2.17;;;26.70;45.20;;;;;;5039887;28;20191;-57
2022/07/18 12:38:06;;;;;;;3.73;2.40;;;27.00;49.60;;;;;;5053592;28;20185;-55
2022/07/18 12:40:40;;;;;;;3.57;2.20;;;27.60;46.80;;;;;;5053216;28;20196;-57
2022/07/18 12:43:09;;;;;;;2.60;2.00;;;28.20;47.40;;;;;;5046549;28;20238;-56
2022/07/18 12:45:36;;;;;;;2.33;2.10;;;28.90;45.60;;;;;;5044716;28;20204;-55
2022/07/18 12:48:03;;;;;;;3.00;2.27;;;29.20;45.20;;;;;;5023684;28;20186;-55
2022/07/18 12:50:29;;;;;;;2.80;1.90;;;29.70;44.90;;;;;;5047249;28;20187;-56
2022/07/18 12:52:56;;;;;;;2.13;1.70;;;30.00;43.50;;;;;;5034549;28;20183;-55